OPA Logo
 
ASOS:
At:2021.02.26 0435 UTC
Wind:130° @ 6KT
Viz: 10 mile(s)
Sky: clear
Temp: 33 F (1 C)
DewP: 26 F (-3 C):1
RH: 21 F (-6 C)
Baro: 21 F (-6 C)
ob: KBDN 260435Z AUTO 13006KT 10SM CLR 01/M06 A3010 RMK AO2

ASOS: KRDM
At:2021.02.26 0356 UTC
Wind:300° @ 8-21 KT
Viz: 10 mile(s)
Sky: mostly cloudy
Temp: 37.9 F (3.3 C)
DewP: 23.0 F (-5.0 C)
RH: 54%
Baro: 30.1 in.
ob: KRDM 260356Z 30008G21KT 10SM BKN046 BKN055 03/M05 A3010 RMK AO2 SLP204 T00331050
Apache-SSL Logo

Valid HTML 4.01!

Central Oregon OPA Chapter

Calendar


Other Calendar pages

Oregon Pilots Association Events Calendar

Washington Pilots Association Events


Web page by: gem@rellim.com